sensor_id;sensor_type;location;lat;lon;timestamp;temperature;humidity
6664;DHT22;58749;48.022;10.922;2022-11-12T00:01:12;7.70;99.90
6664;DHT22;58749;48.022;10.922;2022-11-12T00:03:40;7.70;99.90
6664;DHT22;58749;48.022;10.922;2022-11-12T00:06:08;7.60;99.90
6664;DHT22;58749;48.022;10.922;2022-11-12T00:08:36;7.50;99.90
6664;DHT22;58749;48.022;10.922;2022-11-12T00:11:05;7.40;99.90
6664;DHT22;58749;48.022;10.922;2022-11-12T00:13:34;7.40;99.90
6664;DHT22;58749;48.022;10.922;2022-11-12T00:16:04;7.30;99.90
6664;DHT22;58749;48.022;10.922;2022-11-12T00:18:32;7.30;99.90
6664;DHT22;58749;48.022;10.922;2022-11-12T00:21:00;7.40;99.90
6664;DHT22;58749;48.022;10.922;2022-11-12T00:23:28;7.40;99.90
6664;DHT22;58749;48.022;10.922;2022-11-12T00:25:57;7.40;99.90
6664;DHT22;58749;48.022;10.922;2022-11-12T00:28:26;7.40;99.90
6664;DHT22;58749;48.022;10.922;2022-11-12T00:31:08;7.40;99.90
6664;DHT22;58749;48.022;10.922;2022-11-12T00:33:39;7.30;99.90
6664;DHT22;58749;48.022;10.922;2022-11-12T00:36:07;7.30;99.90
6664;DHT22;58749;48.022;10.922;2022-11-12T00:38:36;7.30;99.90
6664;DHT22;58749;48.022;10.922;2022-11-12T00:41:04;7.20;99.90
6664;DHT22;58749;48.022;10.922;2022-11-12T00:43:32;7.10;99.90
6664;DHT22;58749;48.022;10.922;2022-11-12T00:46:01;7.00;99.90
6664;DHT22;58749;48.022;10.922;2022-11-12T00:48:30;7.00;99.90
6664;DHT22;58749;48.022;10.922;2022-11-12T00:51:00;7.00;99.90
6664;DHT22;58749;48.022;10.922;2022-11-12T00:53:29;6.90;99.90
6664;DHT22;58749;48.022;10.922;2022-11-12T00:56:01;6.80;99.90
6664;DHT22;58749;48.022;10.922;2022-11-12T00:58:30;6.70;99.90
6664;DHT22;58749;48.022;10.922;2022-11-12T01:01:04;6.50;99.90
6664;DHT22;58749;48.022;10.922;2022-11-12T01:03:35;6.50;99.90
6664;DHT22;58749;48.022;10.922;2022-11-12T01:06:04;6.50;99.90
6664;DHT22;58749;48.022;10.922;2022-11-12T01:08:32;6.60;99.90
6664;DHT22;58749;48.022;10.922;2022-11-12T01:11:05;6.60;99.90
6664;DHT22;58749;48.022;10.922;2022-11-12T01:13:34;6.70;99.90
6664;DHT22;58749;48.022;10.922;2022-11-12T01:16:11;6.80;99.90
6664;DHT22;58749;48.022;10.922;2022-11-12T01:18:41;6.90;99.90
6664;DHT22;58749;48.022;10.922;2022-11-12T01:21:10;6.90;99.90
6664;DHT22;58749;48.022;10.922;2022-11-12T01:23:40;6.90;99.90
6664;DHT22;58749;48.022;10.922;2022-11-12T01:26:10;7.00;99.90
6664;DHT22;58749;48.022;10.922;2022-11-12T01:28:39;6.90;99.90
6664;DHT22;58749;48.022;10.922;2022-11-12T01:31:18;6.90;99.90
6664;DHT22;58749;48.022;10.922;2022-11-12T01:33:51;6.80;99.90
6664;DHT22;58749;48.022;10.922;2022-11-12T01:36:20;6.80;99.90
6664;DHT22;58749;48.022;10.922;2022-11-12T01:38:50;6.90;99.90
6664;DHT22;58749;48.022;10.922;2022-11-12T01:41:21;6.90;99.90
6664;DHT22;58749;48.022;10.922;2022-11-12T01:44:11;6.80;99.90
6664;DHT22;58749;48.022;10.922;2022-11-12T01:46:45;6.60;99.90
6664;DHT22;58749;48.022;10.922;2022-11-12T01:49:19;6.40;99.90
6664;DHT22;58749;48.022;10.922;2022-11-12T01:51:50;6.20;99.90
6664;DHT22;58749;48.022;10.922;2022-11-12T01:54:21;6.10;99.90
6664;DHT22;58749;48.022;10.922;2022-11-12T01:56:49;6.00;99.90
6664;DHT22;58749;48.022;10.922;2022-11-12T01:59:23;5.90;99.90
6664;DHT22;58749;48.022;10.922;2022-11-12T02:01:52;5.80;99.90
6664;DHT22;58749;48.022;10.922;2022-11-12T02:04:21;5.70;99.90
6664;DHT22;58749;48.022;10.922;2022-11-12T02:06:50;5.80;99.90
6664;DHT22;58749;48.022;10.922;2022-11-12T02:09:19;5.90;99.90
6664;DHT22;58749;48.022;10.922;2022-11-12T02:11:47;6.10;99.90
6664;DHT22;58749;48.022;10.922;2022-11-12T02:14:15;6.20;99.90
6664;DHT22;58749;48.022;10.922;2022-11-12T02:16:44;6.30;99.90
6664;DHT22;58749;48.022;10.922;2022-11-12T02:19:15;6.30;99.90
6664;DHT22;58749;48.022;10.922;2022-11-12T02:21:47;6.50;99.90
6664;DHT22;58749;48.022;10.922;2022-11-12T02:24:31;6.60;99.90
6664;DHT22;58749;48.022;10.922;2022-11-12T02:26:59;6.70;99.90
6664;DHT22;58749;48.022;10.922;2022-11-12T02:29:27;6.70;99.90
6664;DHT22;58749;48.022;10.922;2022-11-12T02:31:56;6.90;99.90
6664;DHT22;58749;48.022;10.922;2022-11-12T02:34:24;7.00;99.90
6664;DHT22;58749;48.022;10.922;2022-11-12T02:36:53;7.00;99.90
6664;DHT22;58749;48.022;10.922;2022-11-12T02:39:21;7.10;99.90
6664;DHT22;58749;48.022;10.922;2022-11-12T02:41:50;6.90;99.90
6664;DHT22;58749;48.022;10.922;2022-11-12T02:44:18;6.80;99.90
6664;DHT22;58749;48.022;10.922;2022-11-12T02:46:46;6.70;99.90
6664;DHT22;58749;48.022;10.922;2022-11-12T02:49:14;6.60;99.90
6664;DHT22;58749;48.022;10.922;2022-11-12T02:51:42;6.60;99.90
6664;DHT22;58749;48.022;10.922;2022-11-12T02:54:12;6.60;99.90
6664;DHT22;58749;48.022;10.922;2022-11-12T02:56:40;6.50;99.90
6664;DHT22;58749;48.022;10.922;2022-11-12T02:59:08;6.50;99.90
6664;DHT22;58749;48.022;10.922;2022-11-12T03:01:37;6.50;99.90
6664;DHT22;58749;48.022;10.922;2022-11-12T03:04:05;6.40;99.90
6664;DHT22;58749;48.022;10.922;2022-11-12T03:06:33;6.40;99.90
6664;DHT22;58749;48.022;10.922;2022-11-12T03:09:01;6.30;99.90
6664;DHT22;58749;48.022;10.922;2022-11-12T03:11:31;6.30;99.90
6664;DHT22;58749;48.022;10.922;2022-11-12T03:14:00;6.30;99.90
6664;DHT22;58749;48.022;10.922;2022-11-12T03:16:28;6.40;99.90
6664;DHT22;58749;48.022;10.922;2022-11-12T03:18:56;6.40;99.90
6664;DHT22;58749;48.022;10.922;2022-11-12T03:21:24;6.40;99.90
6664;DHT22;58749;48.022;10.922;2022-11-12T03:23:53;6.30;99.90
6664;DHT22;58749;48.022;10.922;2022-11-12T03:26:21;6.20;99.90
6664;DHT22;58749;48.022;10.922;2022-11-12T03:28:51;6.20;99.90
6664;DHT22;58749;48.022;10.922;2022-11-12T03:31:19;6.10;99.90
6664;DHT22;58749;48.022;10.922;2022-11-12T03:33:47;6.20;99.90
6664;DHT22;58749;48.022;10.922;2022-11-12T03:36:15;6.20;99.90
6664;DHT22;58749;48.022;10.922;2022-11-12T03:38:44;6.10;99.90
6664;DHT22;58749;48.022;10.922;2022-11-12T03:41:12;6.10;99.90
6664;DHT22;58749;48.022;10.922;2022-11-12T03:43:40;6.00;99.90
6664;DHT22;58749;48.022;10.922;2022-11-12T03:46:09;6.00;99.90
6664;DHT22;58749;48.022;10.922;2022-11-12T03:48:38;6.00;99.90
6664;DHT22;58749;48.022;10.922;2022-11-12T03:51:06;6.10;99.90
6664;DHT22;58749;48.022;10.922;2022-11-12T03:53:34;6.20;99.90
6664;DHT22;58749;48.022;10.922;2022-11-12T03:56:02;6.30;99.90
6664;DHT22;58749;48.022;10.922;2022-11-12T03:58:30;6.30;99.90
6664;DHT22;58749;48.022;10.922;2022-11-12T04:00:58;6.40;99.90
6664;DHT22;58749;48.022;10.922;2022-11-12T04:03:28;6.60;99.90
6664;DHT22;58749;48.022;10.922;2022-11-12T04:05:56;6.60;99.90
6664;DHT22;58749;48.022;10.922;2022-11-12T04:08:42;6.60;99.90
6664;DHT22;58749;48.022;10.922;2022-11-12T04:11:12;6.60;99.90
6664;DHT22;58749;48.022;10.922;2022-11-12T04:13:41;6.60;99.90
6664;DHT22;58749;48.022;10.922;2022-11-12T04:16:14;6.50;99.90
6664;DHT22;58749;48.022;10.922;2022-11-12T04:19:02;6.60;99.90
6664;DHT22;58749;48.022;10.922;2022-11-12T04:21:50;6.60;99.90
6664;DHT22;58749;48.022;10.922;2022-11-12T04:24:23;6.60;99.90
6664;DHT22;58749;48.022;10.922;2022-11-12T04:27:11;6.50;99.90
6664;DHT22;58749;48.022;10.922;2022-11-12T04:29:40;6.40;99.90
6664;DHT22;58749;48.022;10.922;2022-11-12T04:32:26;6.40;99.90
6664;DHT22;58749;48.022;10.922;2022-11-12T04:34:57;6.50;99.90
6664;DHT22;58749;48.022;10.922;2022-11-12T04:37:26;6.40;99.90
6664;DHT22;58749;48.022;10.922;2022-11-12T04:39:54;6.30;99.90
6664;DHT22;58749;48.022;10.922;2022-11-12T04:42:46;6.30;99.90
6664;DHT22;58749;48.022;10.922;2022-11-12T04:45:32;6.20;99.90
6664;DHT22;58749;48.022;10.922;2022-11-12T04:48:01;6.30;99.90
6664;DHT22;58749;48.022;10.922;2022-11-12T04:50:30;6.40;99.90
6664;DHT22;58749;48.022;10.922;2022-11-12T04:52:58;6.50;99.90
6664;DHT22;58749;48.022;10.922;2022-11-12T04:55:26;6.40;99.90
6664;DHT22;58749;48.022;10.922;2022-11-12T04:57:54;6.40;99.90
6664;DHT22;58749;48.022;10.922;2022-11-12T05:00:27;6.40;99.90
6664;DHT22;58749;48.022;10.922;2022-11-12T05:02:55;6.40;99.90
6664;DHT22;58749;48.022;10.922;2022-11-12T05:05:23;6.40;99.90
6664;DHT22;58749;48.022;10.922;2022-11-12T05:08:00;6.40;99.90
6664;DHT22;58749;48.022;10.922;2022-11-12T05:10:28;6.20;99.90
6664;DHT22;58749;48.022;10.922;2022-11-12T05:12:56;6.10;99.90
6664;DHT22;58749;48.022;10.922;2022-11-12T05:15:25;5.90;99.90
6664;DHT22;58749;48.022;10.922;2022-11-12T05:17:53;5.80;99.90
6664;DHT22;58749;48.022;10.922;2022-11-12T05:20:21;5.80;99.90
6664;DHT22;58749;48.022;10.922;2022-11-12T05:22:50;5.80;99.90
6664;DHT22;58749;48.022;10.922;2022-11-12T05:25:33;5.90;99.90
6664;DHT22;58749;48.022;10.922;2022-11-12T05:28:02;5.90;99.90
6664;DHT22;58749;48.022;10.922;2022-11-12T05:30:33;6.00;99.90
6664;DHT22;58749;48.022;10.922;2022-11-12T05:33:01;6.10;99.90
6664;DHT22;58749;48.022;10.922;2022-11-12T05:35:29;6.20;99.90
6664;DHT22;58749;48.022;10.922;2022-11-12T05:37:57;6.30;99.90
6664;DHT22;58749;48.022;10.922;2022-11-12T05:40:26;6.40;99.90
6664;DHT22;58749;48.022;10.922;2022-11-12T05:42:55;6.40;99.90
6664;DHT22;58749;48.022;10.922;2022-11-12T05:45:23;6.50;99.90
6664;DHT22;58749;48.022;10.922;2022-11-12T05:47:52;6.50;99.90
6664;DHT22;58749;48.022;10.922;2022-11-12T05:50:20;6.60;99.90
6664;DHT22;58749;48.022;10.922;2022-11-12T05:52:48;6.70;99.90
6664;DHT22;58749;48.022;10.922;2022-11-12T05:55:16;6.70;99.90
6664;DHT22;58749;48.022;10.922;2022-11-12T05:57:44;6.80;99.90
6664;DHT22;58749;48.022;10.922;2022-11-12T06:00:15;6.80;99.90
6664;DHT22;58749;48.022;10.922;2022-11-12T06:03:01;6.80;99.90
6664;DHT22;58749;48.022;10.922;2022-11-12T06:05:50;6.70;99.90
6664;DHT22;58749;48.022;10.922;2022-11-12T06:08:38;6.70;99.90
6664;DHT22;58749;48.022;10.922;2022-11-12T06:11:27;6.70;99.90
6664;DHT22;58749;48.022;10.922;2022-11-12T06:13:55;6.70;99.90
6664;DHT22;58749;48.022;10.922;2022-11-12T06:16:25;6.70;99.90
6664;DHT22;58749;48.022;10.922;2022-11-12T06:18:53;6.70;99.90
6664;DHT22;58749;48.022;10.922;2022-11-12T06:21:21;6.60;99.90
6664;DHT22;58749;48.022;10.922;2022-11-12T06:23:51;6.70;99.90
6664;DHT22;58749;48.022;10.922;2022-11-12T06:26:20;6.70;99.90
6664;DHT22;58749;48.022;10.922;2022-11-12T06:28:48;6.80;99.90
6664;DHT22;58749;48.022;10.922;2022-11-12T06:31:17;6.70;99.90
6664;DHT22;58749;48.022;10.922;2022-11-12T06:33:48;6.80;99.90
6664;DHT22;58749;48.022;10.922;2022-11-12T06:36:17;6.90;99.90
6664;DHT22;58749;48.022;10.922;2022-11-12T06:38:46;6.90;99.90
6664;DHT22;58749;48.022;10.922;2022-11-12T06:41:14;6.90;99.90
6664;DHT22;58749;48.022;10.922;2022-11-12T06:43:42;6.90;99.90
6664;DHT22;58749;48.022;10.922;2022-11-12T06:46:12;6.90;99.90
6664;DHT22;58749;48.022;10.922;2022-11-12T06:48:41;6.90;99.90
6664;DHT22;58749;48.022;10.922;2022-11-12T06:51:15;6.80;99.90
6664;DHT22;58749;48.022;10.922;2022-11-12T06:53:44;6.80;99.90
6664;DHT22;58749;48.022;10.922;2022-11-12T06:56:12;6.80;99.90
6664;DHT22;58749;48.022;10.922;2022-11-12T06:58:40;6.90;99.90
6664;DHT22;58749;48.022;10.922;2022-11-12T07:01:10;7.00;99.90
6664;DHT22;58749;48.022;10.922;2022-11-12T07:03:39;6.90;99.90
6664;DHT22;58749;48.022;10.922;2022-11-12T07:06:11;6.80;99.90
6664;DHT22;58749;48.022;10.922;2022-11-12T07:08:40;6.70;99.90
6664;DHT22;58749;48.022;10.922;2022-11-12T07:11:09;6.70;99.90
6664;DHT22;58749;48.022;10.922;2022-11-12T07:13:37;6.60;99.90
6664;DHT22;58749;48.022;10.922;2022-11-12T07:16:07;6.50;99.90
6664;DHT22;58749;48.022;10.922;2022-11-12T07:18:35;6.50;99.90
6664;DHT22;58749;48.022;10.922;2022-11-12T07:21:05;6.50;99.90
6664;DHT22;58749;48.022;10.922;2022-11-12T07:23:36;6.40;99.90
6664;DHT22;58749;48.022;10.922;2022-11-12T07:26:07;6.40;99.90
6664;DHT22;58749;48.022;10.922;2022-11-12T07:28:35;6.30;99.90
6664;DHT22;58749;48.022;10.922;2022-11-12T07:31:05;6.30;99.90
6664;DHT22;58749;48.022;10.922;2022-11-12T07:33:33;6.10;99.90
6664;DHT22;58749;48.022;10.922;2022-11-12T07:36:03;5.90;99.90
6664;DHT22;58749;48.022;10.922;2022-11-12T07:38:35;5.70;99.90
6664;DHT22;58749;48.022;10.922;2022-11-12T07:41:05;5.50;99.90
6664;DHT22;58749;48.022;10.922;2022-11-12T07:43:34;5.40;99.90
6664;DHT22;58749;48.022;10.922;2022-11-12T07:46:04;5.30;99.90
6664;DHT22;58749;48.022;10.922;2022-11-12T07:48:37;5.30;99.90
6664;DHT22;58749;48.022;10.922;2022-11-12T07:51:06;5.30;99.90
6664;DHT22;58749;48.022;10.922;2022-11-12T07:53:37;5.30;99.90
6664;DHT22;58749;48.022;10.922;2022-11-12T07:56:05;5.20;99.90
6664;DHT22;58749;48.022;10.922;2022-11-12T07:58:33;5.20;99.90
6664;DHT22;58749;48.022;10.922;2022-11-12T08:01:09;5.30;99.90
6664;DHT22;58749;48.022;10.922;2022-11-12T08:03:37;5.20;99.90
6664;DHT22;58749;48.022;10.922;2022-11-12T08:06:06;5.30;99.90
6664;DHT22;58749;48.022;10.922;2022-11-12T08:08:36;5.30;99.90
6664;DHT22;58749;48.022;10.922;2022-11-12T08:11:04;5.30;99.90
6664;DHT22;58749;48.022;10.922;2022-11-12T08:13:33;5.40;99.90
6664;DHT22;58749;48.022;10.922;2022-11-12T08:16:01;5.40;99.90
6664;DHT22;58749;48.022;10.922;2022-11-12T08:18:29;5.40;99.90
6664;DHT22;58749;48.022;10.922;2022-11-12T08:21:01;5.40;99.90
6664;DHT22;58749;48.022;10.922;2022-11-12T08:23:30;5.40;99.90
6664;DHT22;58749;48.022;10.922;2022-11-12T08:26:02;5.30;99.90
6664;DHT22;58749;48.022;10.922;2022-11-12T08:28:30;5.40;99.90
6664;DHT22;58749;48.022;10.922;2022-11-12T08:31:02;5.50;99.90
6664;DHT22;58749;48.022;10.922;2022-11-12T08:33:31;5.60;99.90
6664;DHT22;58749;48.022;10.922;2022-11-12T08:36:01;5.80;99.90
6664;DHT22;58749;48.022;10.922;2022-11-12T08:38:30;5.90;99.90
6664;DHT22;58749;48.022;10.922;2022-11-12T08:41:00;6.10;99.90
6664;DHT22;58749;48.022;10.922;2022-11-12T08:43:29;6.10;99.90
6664;DHT22;58749;48.022;10.922;2022-11-12T08:45:58;6.20;99.90
6664;DHT22;58749;48.022;10.922;2022-11-12T08:48:27;6.30;99.90
6664;DHT22;58749;48.022;10.922;2022-11-12T08:51:00;6.40;99.90
6664;DHT22;58749;48.022;10.922;2022-11-12T08:53:29;6.50;99.90
6664;DHT22;58749;48.022;10.922;2022-11-12T08:55:57;6.60;99.90
6664;DHT22;58749;48.022;10.922;2022-11-12T08:58:27;6.70;99.90
6664;DHT22;58749;48.022;10.922;2022-11-12T09:00:56;6.80;99.90
6664;DHT22;58749;48.022;10.922;2022-11-12T09:03:25;6.80;99.90
6664;DHT22;58749;48.022;10.922;2022-11-12T09:05:53;6.80;99.90
6664;DHT22;58749;48.022;10.922;2022-11-12T09:08:23;6.70;99.90
6664;DHT22;58749;48.022;10.922;2022-11-12T09:10:52;6.70;99.90
6664;DHT22;58749;48.022;10.922;2022-11-12T09:13:20;6.70;99.90
6664;DHT22;58749;48.022;10.922;2022-11-12T09:15:50;6.80;99.90
6664;DHT22;58749;48.022;10.922;2022-11-12T09:18:18;6.80;99.90
6664;DHT22;58749;48.022;10.922;2022-11-12T09:20:46;6.80;99.90
6664;DHT22;58749;48.022;10.922;2022-11-12T09:23:15;6.90;99.90
6664;DHT22;58749;48.022;10.922;2022-11-12T09:25:43;7.00;99.90
6664;DHT22;58749;48.022;10.922;2022-11-12T09:28:13;7.10;99.90
6664;DHT22;58749;48.022;10.922;2022-11-12T09:30:43;7.10;99.90
6664;DHT22;58749;48.022;10.922;2022-11-12T09:33:14;7.20;99.90
6664;DHT22;58749;48.022;10.922;2022-11-12T09:35:42;7.30;99.90
6664;DHT22;58749;48.022;10.922;2022-11-12T09:38:11;7.40;99.90
6664;DHT22;58749;48.022;10.922;2022-11-12T09:40:51;7.60;99.90
6664;DHT22;58749;48.022;10.922;2022-11-12T09:43:26;7.70;99.90
6664;DHT22;58749;48.022;10.922;2022-11-12T09:46:00;7.80;99.90
6664;DHT22;58749;48.022;10.922;2022-11-12T09:48:54;7.90;99.90
6664;DHT22;58749;48.022;10.922;2022-11-12T09:51:27;7.80;99.90
6664;DHT22;58749;48.022;10.922;2022-11-12T09:53:57;7.90;99.90
6664;DHT22;58749;48.022;10.922;2022-11-12T09:56:26;7.80;99.90
6664;DHT22;58749;48.022;10.922;2022-11-12T09:58:55;7.90;99.90
6664;DHT22;58749;48.022;10.922;2022-11-12T10:01:36;7.90;99.90
6664;DHT22;58749;48.022;10.922;2022-11-12T10:04:26;8.10;99.90
6664;DHT22;58749;48.022;10.922;2022-11-12T10:07:00;8.20;99.90
6664;DHT22;58749;48.022;10.922;2022-11-12T10:09:35;8.30;99.90
6664;DHT22;58749;48.022;10.922;2022-11-12T10:12:14;8.40;99.90
6664;DHT22;58749;48.022;10.922;2022-11-12T10:15:17;8.50;99.90
6664;DHT22;58749;48.022;10.922;2022-11-12T10:18:08;8.60;99.90
6664;DHT22;58749;48.022;10.922;2022-11-12T10:20:49;8.70;99.90
6664;DHT22;58749;48.022;10.922;2022-11-12T10:23:21;8.80;99.90
6664;DHT22;58749;48.022;10.922;2022-11-12T10:25:56;8.90;99.90
6664;DHT22;58749;48.022;10.922;2022-11-12T10:28:25;9.10;99.90
6664;DHT22;58749;48.022;10.922;2022-11-12T10:31:03;9.20;99.90
6664;DHT22;58749;48.022;10.922;2022-11-12T10:33:32;9.20;99.90
6664;DHT22;58749;48.022;10.922;2022-11-12T10:36:15;9.30;99.90
6664;DHT22;58749;48.022;10.922;2022-11-12T10:38:44;9.30;99.90
6664;DHT22;58749;48.022;10.922;2022-11-12T10:41:20;9.30;99.90
6664;DHT22;58749;48.022;10.922;2022-11-12T10:43:56;9.30;99.90
6664;DHT22;58749;48.022;10.922;2022-11-12T10:46:27;9.40;99.90
6664;DHT22;58749;48.022;10.922;2022-11-12T10:48:58;9.50;99.90
6664;DHT22;58749;48.022;10.922;2022-11-12T10:51:31;9.60;99.90
6664;DHT22;58749;48.022;10.922;2022-11-12T10:54:18;9.70;99.90
6664;DHT22;58749;48.022;10.922;2022-11-12T10:56:47;9.70;99.90
6664;DHT22;58749;48.022;10.922;2022-11-12T10:59:22;9.90;99.90
6664;DHT22;58749;48.022;10.922;2022-11-12T11:01:54;10.00;99.90
6664;DHT22;58749;48.022;10.922;2022-11-12T11:04:27;10.00;99.90
6664;DHT22;58749;48.022;10.922;2022-11-12T11:07:03;10.10;99.90
6664;DHT22;58749;48.022;10.922;2022-11-12T11:09:33;10.20;99.90
6664;DHT22;58749;48.022;10.922;2022-11-12T11:12:01;10.30;99.90
6664;DHT22;58749;48.022;10.922;2022-11-12T11:14:32;10.30;99.90
6664;DHT22;58749;48.022;10.922;2022-11-12T11:17:02;10.30;99.90
6664;DHT22;58749;48.022;10.922;2022-11-12T11:19:37;10.30;99.90
6664;DHT22;58749;48.022;10.922;2022-11-12T11:22:37;10.30;99.90
6664;DHT22;58749;48.022;10.922;2022-11-12T11:25:18;10.30;99.90
6664;DHT22;58749;48.022;10.922;2022-11-12T11:27:56;10.30;99.90
6664;DHT22;58749;48.022;10.922;2022-11-12T11:30:28;10.40;99.90
6664;DHT22;58749;48.022;10.922;2022-11-12T11:33:23;10.50;99.90
6664;DHT22;58749;48.022;10.922;2022-11-12T11:36:01;10.50;99.90
6664;DHT22;58749;48.022;10.922;2022-11-12T11:38:41;10.60;99.90
6664;DHT22;58749;48.022;10.922;2022-11-12T11:41:20;10.50;99.90
6664;DHT22;58749;48.022;10.922;2022-11-12T11:44:05;10.50;99.90
6664;DHT22;58749;48.022;10.922;2022-11-12T11:46:53;10.50;99.90
6664;DHT22;58749;48.022;10.922;2022-11-12T11:49:58;10.50;99.90
6664;DHT22;58749;48.022;10.922;2022-11-12T11:52:42;10.40;99.90
6664;DHT22;58749;48.022;10.922;2022-11-12T11:55:30;10.40;99.90
6664;DHT22;58749;48.022;10.922;2022-11-12T11:58:12;10.30;99.90
6664;DHT22;58749;48.022;10.922;2022-11-12T12:00:54;10.30;99.90
6664;DHT22;58749;48.022;10.922;2022-11-12T12:03:25;10.30;99.90
6664;DHT22;58749;48.022;10.922;2022-11-12T12:06:14;10.30;99.90
6664;DHT22;58749;48.022;10.922;2022-11-12T12:09:01;10.40;99.90
6664;DHT22;58749;48.022;10.922;2022-11-12T12:11:36;10.40;99.90
6664;DHT22;58749;48.022;10.922;2022-11-12T12:14:21;10.40;99.90
6664;DHT22;58749;48.022;10.922;2022-11-12T12:17:03;10.40;99.90
6664;DHT22;58749;48.022;10.922;2022-11-12T12:19:44;10.40;99.90
6664;DHT22;58749;48.022;10.922;2022-11-12T12:22:17;10.40;99.90
6664;DHT22;58749;48.022;10.922;2022-11-12T12:24:50;10.40;99.90
6664;DHT22;58749;48.022;10.922;2022-11-12T12:27:25;10.30;99.90
6664;DHT22;58749;48.022;10.922;2022-11-12T12:30:00;10.40;99.90
6664;DHT22;58749;48.022;10.922;2022-11-12T12:32:32;10.50;99.90
6664;DHT22;58749;48.022;10.922;2022-11-12T12:35:06;10.60;99.90
6664;DHT22;58749;48.022;10.922;2022-11-12T12:37:44;10.70;99.90
6664;DHT22;58749;48.022;10.922;2022-11-12T12:40:16;10.70;99.90
6664;DHT22;58749;48.022;10.922;2022-11-12T12:42:52;10.70;99.90
6664;DHT22;58749;48.022;10.922;2022-11-12T12:45:37;10.70;99.90
6664;DHT22;58749;48.022;10.922;2022-11-12T12:48:11;10.70;99.90
6664;DHT22;58749;48.022;10.922;2022-11-12T12:50:41;10.80;99.90
6664;DHT22;58749;48.022;10.922;2022-11-12T12:53:29;10.80;99.90
6664;DHT22;58749;48.022;10.922;2022-11-12T12:55:58;10.90;99.90
6664;DHT22;58749;48.022;10.922;2022-11-12T12:58:29;10.90;99.90
6664;DHT22;58749;48.022;10.922;2022-11-12T13:01:01;10.90;99.90
6664;DHT22;58749;48.022;10.922;2022-11-12T13:03:50;10.90;99.90
6664;DHT22;58749;48.022;10.922;2022-11-12T13:06:27;10.90;99.90
6664;DHT22;58749;48.022;10.922;2022-11-12T13:08:59;11.00;99.90
6664;DHT22;58749;48.022;10.922;2022-11-12T13:12:01;11.00;99.90
6664;DHT22;58749;48.022;10.922;2022-11-12T13:14:54;11.00;99.90
6664;DHT22;58749;48.022;10.922;2022-11-12T13:17:48;11.00;99.90
6664;DHT22;58749;48.022;10.922;2022-11-12T13:20:35;11.00;99.90
6664;DHT22;58749;48.022;10.922;2022-11-12T13:23:41;11.00;99.90
6664;DHT22;58749;48.022;10.922;2022-11-12T13:26:42;10.90;99.90
6664;DHT22;58749;48.022;10.922;2022-11-12T13:29:39;10.90;99.90
6664;DHT22;58749;48.022;10.922;2022-11-12T13:32:29;10.80;99.90
6664;DHT22;58749;48.022;10.922;2022-11-12T13:35:20;10.90;99.90
6664;DHT22;58749;48.022;10.922;2022-11-12T13:37:54;10.80;99.90
6664;DHT22;58749;48.022;10.922;2022-11-12T13:40:36;10.80;99.90
6664;DHT22;58749;48.022;10.922;2022-11-12T13:43:25;10.80;99.90
6664;DHT22;58749;48.022;10.922;2022-11-12T13:46:05;10.70;99.90
6664;DHT22;58749;48.022;10.922;2022-11-12T13:48:43;10.70;99.90
6664;DHT22;58749;48.022;10.922;2022-11-12T13:51:15;10.70;99.90
6664;DHT22;58749;48.022;10.922;2022-11-12T13:53:44;10.70;99.90
6664;DHT22;58749;48.022;10.922;2022-11-12T13:56:24;10.70;99.90
6664;DHT22;58749;48.022;10.922;2022-11-12T13:58:53;10.70;99.90
6664;DHT22;58749;48.022;10.922;2022-11-12T14:01:22;10.60;99.90
6664;DHT22;58749;48.022;10.922;2022-11-12T14:03:53;10.60;99.90
6664;DHT22;58749;48.022;10.922;2022-11-12T14:06:26;10.50;99.90
6664;DHT22;58749;48.022;10.922;2022-11-12T14:09:21;10.40;99.90
6664;DHT22;58749;48.022;10.922;2022-11-12T14:12:13;10.30;99.90
6664;DHT22;58749;48.022;10.922;2022-11-12T14:15:01;10.30;99.90
6664;DHT22;58749;48.022;10.922;2022-11-12T14:17:38;10.30;99.90
6664;DHT22;58749;48.022;10.922;2022-11-12T14:26:12;10.30;99.90
6664;DHT22;58749;48.022;10.922;2022-11-12T14:35:26;10.20;99.90
6664;DHT22;58749;48.022;10.922;2022-11-12T14:37:59;10.10;99.90
6664;DHT22;58749;48.022;10.922;2022-11-12T14:40:31;10.10;99.90
6664;DHT22;58749;48.022;10.922;2022-11-12T14:43:00;10.10;99.90
6664;DHT22;58749;48.022;10.922;2022-11-12T14:45:29;10.00;99.90
6664;DHT22;58749;48.022;10.922;2022-11-12T14:48:01;10.00;99.90
6664;DHT22;58749;48.022;10.922;2022-11-12T14:50:31;10.00;99.90
6664;DHT22;58749;48.022;10.922;2022-11-12T14:53:12;9.90;99.90
6664;DHT22;58749;48.022;10.922;2022-11-12T14:55:46;9.90;99.90
6664;DHT22;58749;48.022;10.922;2022-11-12T14:58:17;9.80;99.90
6664;DHT22;58749;48.022;10.922;2022-11-12T15:00:47;9.80;99.90
6664;DHT22;58749;48.022;10.922;2022-11-12T15:03:18;9.70;99.90
6664;DHT22;58749;48.022;10.922;2022-11-12T15:05:57;9.70;99.90
6664;DHT22;58749;48.022;10.922;2022-11-12T15:08:31;9.60;99.90
6664;DHT22;58749;48.022;10.922;2022-11-12T15:11:15;9.50;99.90
6664;DHT22;58749;48.022;10.922;2022-11-12T15:13:48;9.40;99.90
6664;DHT22;58749;48.022;10.922;2022-11-12T15:16:20;9.30;99.90
6664;DHT22;58749;48.022;10.922;2022-11-12T15:21:52;9.20;99.90
6664;DHT22;58749;48.022;10.922;2022-11-12T15:24:26;9.20;99.90
6664;DHT22;58749;48.022;10.922;2022-11-12T15:26:58;9.10;99.90
6664;DHT22;58749;48.022;10.922;2022-11-12T15:29:28;9.00;99.90
6664;DHT22;58749;48.022;10.922;2022-11-12T15:31:59;9.00;99.90
6664;DHT22;58749;48.022;10.922;2022-11-12T15:34:42;8.90;99.90
6664;DHT22;58749;48.022;10.922;2022-11-12T15:37:20;8.90;99.90
6664;DHT22;58749;48.022;10.922;2022-11-12T15:39:53;8.90;99.90
6664;DHT22;58749;48.022;10.922;2022-11-12T15:42:27;8.90;99.90
6664;DHT22;58749;48.022;10.922;2022-11-12T15:44:59;8.80;99.90
6664;DHT22;58749;48.022;10.922;2022-11-12T15:47:29;8.80;99.90
6664;DHT22;58749;48.022;10.922;2022-11-12T15:49:58;8.80;99.90
6664;DHT22;58749;48.022;10.922;2022-11-12T15:52:27;8.70;99.90
6664;DHT22;58749;48.022;10.922;2022-11-12T15:54:56;8.70;99.90
6664;DHT22;58749;48.022;10.922;2022-11-12T15:57:27;8.70;99.90
6664;DHT22;58749;48.022;10.922;2022-11-12T15:59:58;8.60;99.90
6664;DHT22;58749;48.022;10.922;2022-11-12T16:02:34;8.60;99.90
6664;DHT22;58749;48.022;10.922;2022-11-12T16:05:02;8.50;99.90
6664;DHT22;58749;48.022;10.922;2022-11-12T16:07:31;8.40;99.90
6664;DHT22;58749;48.022;10.922;2022-11-12T16:10:00;8.40;99.90
6664;DHT22;58749;48.022;10.922;2022-11-12T16:12:28;8.40;99.90
6664;DHT22;58749;48.022;10.922;2022-11-12T16:14:56;8.30;99.90
6664;DHT22;58749;48.022;10.922;2022-11-12T16:17:27;8.20;99.90
6664;DHT22;58749;48.022;10.922;2022-11-12T16:19:55;8.10;99.90
6664;DHT22;58749;48.022;10.922;2022-11-12T16:22:23;8.00;99.90
6664;DHT22;58749;48.022;10.922;2022-11-12T16:24:53;8.00;99.90
6664;DHT22;58749;48.022;10.922;2022-11-12T16:27:21;7.90;99.90
6664;DHT22;58749;48.022;10.922;2022-11-12T16:29:49;7.80;99.90
6664;DHT22;58749;48.022;10.922;2022-11-12T16:32:18;7.60;99.90
6664;DHT22;58749;48.022;10.922;2022-11-12T16:34:46;7.50;99.90